sensor_id;sensor_type;location;lat;lon;timestamp;P1;durP1;ratioP1;P2;durP2;ratioP2
6017;SDS011;3037;51.068;13.780;2022-10-19T00:02:24;36.13;;;20.20;;
6017;SDS011;3037;51.068;13.780;2022-10-19T00:04:49;38.60;;;22.40;;
6017;SDS011;3037;51.068;13.780;2022-10-19T00:07:15;33.10;;;21.80;;
6017;SDS011;3037;51.068;13.780;2022-10-19T00:09:42;33.67;;;21.00;;
6017;SDS011;3037;51.068;13.780;2022-10-19T00:12:08;45.00;;;22.10;;
6017;SDS011;3037;51.068;13.780;2022-10-19T00:14:33;33.20;;;20.90;;
6017;SDS011;3037;51.068;13.780;2022-10-19T00:16:59;37.87;;;21.57;;
6017;SDS011;3037;51.068;13.780;2022-10-19T00:19:25;36.77;;;21.93;;
6017;SDS011;3037;51.068;13.780;2022-10-19T00:21:51;34.87;;;19.77;;
6017;SDS011;3037;51.068;13.780;2022-10-19T00:24:17;36.00;;;21.40;;
6017;SDS011;3037;51.068;13.780;2022-10-19T00:26:43;39.43;;;21.70;;
6017;SDS011;3037;51.068;13.780;2022-10-19T00:29:09;49.33;;;22.43;;
6017;SDS011;3037;51.068;13.780;2022-10-19T00:31:37;40.33;;;23.30;;
6017;SDS011;3037;51.068;13.780;2022-10-19T00:34:03;40.87;;;22.83;;
6017;SDS011;3037;51.068;13.780;2022-10-19T00:36:32;41.60;;;22.30;;
6017;SDS011;3037;51.068;13.780;2022-10-19T00:39:00;42.73;;;22.60;;
6017;SDS011;3037;51.068;13.780;2022-10-19T00:41:28;43.30;;;22.20;;
6017;SDS011;3037;51.068;13.780;2022-10-19T00:43:57;36.63;;;23.77;;
6017;SDS011;3037;51.068;13.780;2022-10-19T00:46:25;42.90;;;24.00;;
6017;SDS011;3037;51.068;13.780;2022-10-19T00:48:53;46.40;;;25.03;;
6017;SDS011;3037;51.068;13.780;2022-10-19T00:51:22;44.43;;;24.40;;
6017;SDS011;3037;51.068;13.780;2022-10-19T00:53:49;41.60;;;23.37;;
6017;SDS011;3037;51.068;13.780;2022-10-19T00:56:15;45.27;;;23.30;;
6017;SDS011;3037;51.068;13.780;2022-10-19T00:58:42;45.03;;;22.20;;
6017;SDS011;3037;51.068;13.780;2022-10-19T01:01:08;40.70;;;22.57;;
6017;SDS011;3037;51.068;13.780;2022-10-19T01:03:40;33.93;;;20.33;;
6017;SDS011;3037;51.068;13.780;2022-10-19T01:06:06;35.63;;;20.53;;
6017;SDS011;3037;51.068;13.780;2022-10-19T01:08:32;48.63;;;21.90;;
6017;SDS011;3037;51.068;13.780;2022-10-19T01:33:35;41.73;;;19.97;;
6017;SDS011;3037;51.068;13.780;2022-10-19T01:36:17;40.60;;;20.93;;
6017;SDS011;3037;51.068;13.780;2022-10-19T01:38:52;36.30;;;20.97;;
6017;SDS011;3037;51.068;13.780;2022-10-19T01:44:00;34.23;;;18.80;;
6017;SDS011;3037;51.068;13.780;2022-10-19T01:49:18;33.30;;;18.40;;
6017;SDS011;3037;51.068;13.780;2022-10-19T01:51:53;35.47;;;19.87;;
6017;SDS011;3037;51.068;13.780;2022-10-19T01:54:21;27.07;;;17.80;;
6017;SDS011;3037;51.068;13.780;2022-10-19T01:56:50;36.70;;;18.60;;
6017;SDS011;3037;51.068;13.780;2022-10-19T01:59:18;40.00;;;20.60;;
6017;SDS011;3037;51.068;13.780;2022-10-19T02:01:46;38.23;;;18.37;;
6017;SDS011;3037;51.068;13.780;2022-10-19T02:04:15;33.80;;;20.07;;
6017;SDS011;3037;51.068;13.780;2022-10-19T02:06:43;57.33;;;17.67;;
6017;SDS011;3037;51.068;13.780;2022-10-19T02:09:09;41.97;;;18.00;;
6017;SDS011;3037;51.068;13.780;2022-10-19T02:11:41;31.10;;;17.90;;
6017;SDS011;3037;51.068;13.780;2022-10-19T02:14:10;34.90;;;20.77;;
6017;SDS011;3037;51.068;13.780;2022-10-19T02:16:40;27.07;;;17.43;;
6017;SDS011;3037;51.068;13.780;2022-10-19T02:19:10;27.60;;;16.30;;
6017;SDS011;3037;51.068;13.780;2022-10-19T02:21:38;39.37;;;16.70;;
6017;SDS011;3037;51.068;13.780;2022-10-19T02:24:04;38.80;;;15.70;;
6017;SDS011;3037;51.068;13.780;2022-10-19T02:26:29;28.53;;;17.07;;
6017;SDS011;3037;51.068;13.780;2022-10-19T02:28:55;28.73;;;16.40;;
6017;SDS011;3037;51.068;13.780;2022-10-19T02:31:22;28.33;;;16.60;;
6017;SDS011;3037;51.068;13.780;2022-10-19T02:33:48;25.83;;;15.13;;
6017;SDS011;3037;51.068;13.780;2022-10-19T02:36:13;26.33;;;15.93;;
6017;SDS011;3037;51.068;13.780;2022-10-19T02:38:39;38.90;;;16.67;;
6017;SDS011;3037;51.068;13.780;2022-10-19T02:41:07;28.00;;;15.43;;
6017;SDS011;3037;51.068;13.780;2022-10-19T02:43:47;28.67;;;16.40;;
6017;SDS011;3037;51.068;13.780;2022-10-19T02:48:48;25.27;;;15.50;;
6017;SDS011;3037;51.068;13.780;2022-10-19T02:51:31;33.37;;;14.77;;
6017;SDS011;3037;51.068;13.780;2022-10-19T02:53:59;20.07;;;15.07;;
6017;SDS011;3037;51.068;13.780;2022-10-19T02:56:25;19.57;;;13.50;;
6017;SDS011;3037;51.068;13.780;2022-10-19T02:58:51;25.40;;;14.43;;
6017;SDS011;3037;51.068;13.780;2022-10-19T03:01:17;33.53;;;13.90;;
6017;SDS011;3037;51.068;13.780;2022-10-19T03:03:42;21.53;;;13.63;;
6017;SDS011;3037;51.068;13.780;2022-10-19T03:06:08;19.50;;;13.23;;
6017;SDS011;3037;51.068;13.780;2022-10-19T03:08:34;23.73;;;13.63;;
6017;SDS011;3037;51.068;13.780;2022-10-19T03:10:59;33.80;;;13.50;;
6017;SDS011;3037;51.068;13.780;2022-10-19T03:13:25;26.57;;;14.93;;
6017;SDS011;3037;51.068;13.780;2022-10-19T03:15:51;28.13;;;11.90;;
6017;SDS011;3037;51.068;13.780;2022-10-19T03:18:16;32.40;;;13.40;;
6017;SDS011;3037;51.068;13.780;2022-10-19T03:20:42;24.93;;;12.40;;
6017;SDS011;3037;51.068;13.780;2022-10-19T03:23:08;27.97;;;13.53;;
6017;SDS011;3037;51.068;13.780;2022-10-19T03:25:33;21.50;;;12.57;;
6017;SDS011;3037;51.068;13.780;2022-10-19T03:27:59;22.93;;;13.10;;
6017;SDS011;3037;51.068;13.780;2022-10-19T03:30:24;20.00;;;11.97;;
6017;SDS011;3037;51.068;13.780;2022-10-19T03:32:50;25.13;;;12.63;;
6017;SDS011;3037;51.068;13.780;2022-10-19T03:35:16;24.00;;;12.60;;
6017;SDS011;3037;51.068;13.780;2022-10-19T03:37:41;19.50;;;13.20;;
6017;SDS011;3037;51.068;13.780;2022-10-19T03:40:07;32.03;;;13.53;;
6017;SDS011;3037;51.068;13.780;2022-10-19T03:42:33;21.83;;;13.23;;
6017;SDS011;3037;51.068;13.780;2022-10-19T03:44:58;17.57;;;11.80;;
6017;SDS011;3037;51.068;13.780;2022-10-19T03:47:24;32.47;;;12.93;;
6017;SDS011;3037;51.068;13.780;2022-10-19T03:49:50;24.27;;;12.80;;
6017;SDS011;3037;51.068;13.780;2022-10-19T03:52:16;23.83;;;12.43;;
6017;SDS011;3037;51.068;13.780;2022-10-19T03:54:42;26.53;;;12.40;;
6017;SDS011;3037;51.068;13.780;2022-10-19T03:57:08;24.57;;;12.33;;
6017;SDS011;3037;51.068;13.780;2022-10-19T03:59:34;14.73;;;11.63;;
6017;SDS011;3037;51.068;13.780;2022-10-19T04:02:00;19.03;;;11.60;;
6017;SDS011;3037;51.068;13.780;2022-10-19T04:04:25;17.60;;;13.20;;
6017;SDS011;3037;51.068;13.780;2022-10-19T04:06:51;23.43;;;11.97;;
6017;SDS011;3037;51.068;13.780;2022-10-19T04:09:18;28.40;;;12.80;;
6017;SDS011;3037;51.068;13.780;2022-10-19T04:11:45;25.27;;;12.63;;
6017;SDS011;3037;51.068;13.780;2022-10-19T04:14:11;19.40;;;13.20;;
6017;SDS011;3037;51.068;13.780;2022-10-19T04:16:38;18.67;;;13.97;;
6017;SDS011;3037;51.068;13.780;2022-10-19T04:19:04;30.20;;;12.20;;
6017;SDS011;3037;51.068;13.780;2022-10-19T04:21:30;22.10;;;11.60;;
6017;SDS011;3037;51.068;13.780;2022-10-19T04:24:12;16.67;;;11.90;;
6017;SDS011;3037;51.068;13.780;2022-10-19T04:26:40;21.33;;;13.17;;
6017;SDS011;3037;51.068;13.780;2022-10-19T04:29:07;25.40;;;12.90;;
6017;SDS011;3037;51.068;13.780;2022-10-19T04:31:32;28.50;;;13.93;;
6017;SDS011;3037;51.068;13.780;2022-10-19T04:33:58;23.00;;;12.90;;
6017;SDS011;3037;51.068;13.780;2022-10-19T04:36:24;17.63;;;11.93;;
6017;SDS011;3037;51.068;13.780;2022-10-19T04:38:49;24.47;;;12.90;;
6017;SDS011;3037;51.068;13.780;2022-10-19T04:41:16;27.23;;;14.10;;
6017;SDS011;3037;51.068;13.780;2022-10-19T04:43:44;24.73;;;13.90;;
6017;SDS011;3037;51.068;13.780;2022-10-19T04:46:17;26.10;;;14.30;;
6017;SDS011;3037;51.068;13.780;2022-10-19T04:48:43;28.23;;;14.50;;
6017;SDS011;3037;51.068;13.780;2022-10-19T04:51:10;25.03;;;13.90;;
6017;SDS011;3037;51.068;13.780;2022-10-19T04:53:37;24.13;;;13.43;;
6017;SDS011;3037;51.068;13.780;2022-10-19T04:56:04;32.87;;;14.57;;
6017;SDS011;3037;51.068;13.780;2022-10-19T04:58:32;26.83;;;13.40;;
6017;SDS011;3037;51.068;13.780;2022-10-19T05:00:57;20.43;;;12.37;;
6017;SDS011;3037;51.068;13.780;2022-10-19T05:03:23;25.63;;;12.80;;
6017;SDS011;3037;51.068;13.780;2022-10-19T05:05:48;22.77;;;12.93;;
6017;SDS011;3037;51.068;13.780;2022-10-19T05:08:14;29.30;;;13.90;;
6017;SDS011;3037;51.068;13.780;2022-10-19T05:10:40;32.00;;;13.40;;
6017;SDS011;3037;51.068;13.780;2022-10-19T05:13:05;25.37;;;13.30;;
6017;SDS011;3037;51.068;13.780;2022-10-19T05:15:31;21.17;;;12.20;;
6017;SDS011;3037;51.068;13.780;2022-10-19T05:17:57;28.83;;;12.50;;
6017;SDS011;3037;51.068;13.780;2022-10-19T05:20:22;24.00;;;12.67;;
6017;SDS011;3037;51.068;13.780;2022-10-19T05:22:48;27.50;;;13.37;;
6017;SDS011;3037;51.068;13.780;2022-10-19T05:25:14;24.83;;;12.53;;
6017;SDS011;3037;51.068;13.780;2022-10-19T05:27:40;25.40;;;13.50;;
6017;SDS011;3037;51.068;13.780;2022-10-19T05:30:05;20.60;;;12.90;;
6017;SDS011;3037;51.068;13.780;2022-10-19T05:32:32;24.60;;;14.17;;
6017;SDS011;3037;51.068;13.780;2022-10-19T05:34:58;25.20;;;12.13;;
6017;SDS011;3037;51.068;13.780;2022-10-19T05:37:23;19.10;;;12.27;;
6017;SDS011;3037;51.068;13.780;2022-10-19T05:39:49;23.50;;;13.80;;
6017;SDS011;3037;51.068;13.780;2022-10-19T05:42:15;28.20;;;13.10;;
6017;SDS011;3037;51.068;13.780;2022-10-19T05:44:41;33.50;;;13.33;;
6017;SDS011;3037;51.068;13.780;2022-10-19T05:47:07;30.63;;;13.20;;
6017;SDS011;3037;51.068;13.780;2022-10-19T05:49:32;21.13;;;13.93;;
6017;SDS011;3037;51.068;13.780;2022-10-19T05:51:58;21.93;;;11.83;;
6017;SDS011;3037;51.068;13.780;2022-10-19T05:54:24;23.00;;;12.30;;
6017;SDS011;3037;51.068;13.780;2022-10-19T05:56:49;24.53;;;12.57;;
6017;SDS011;3037;51.068;13.780;2022-10-19T05:59:16;20.73;;;12.90;;
6017;SDS011;3037;51.068;13.780;2022-10-19T06:01:43;30.07;;;13.30;;
6017;SDS011;3037;51.068;13.780;2022-10-19T06:04:09;23.10;;;11.53;;
6017;SDS011;3037;51.068;13.780;2022-10-19T06:06:37;24.53;;;12.60;;
6017;SDS011;3037;51.068;13.780;2022-10-19T06:09:03;22.33;;;13.37;;
6017;SDS011;3037;51.068;13.780;2022-10-19T06:11:33;25.73;;;13.20;;
6017;SDS011;3037;51.068;13.780;2022-10-19T06:14:02;26.60;;;13.20;;
6017;SDS011;3037;51.068;13.780;2022-10-19T06:16:29;46.60;;;19.10;;
6017;SDS011;3037;51.068;13.780;2022-10-19T06:18:56;34.50;;;13.27;;
6017;SDS011;3037;51.068;13.780;2022-10-19T06:21:23;19.90;;;11.10;;
6017;SDS011;3037;51.068;13.780;2022-10-19T06:23:52;22.50;;;10.83;;
6017;SDS011;3037;51.068;13.780;2022-10-19T06:26:27;24.47;;;11.30;;
6017;SDS011;3037;51.068;13.780;2022-10-19T06:28:54;17.53;;;10.80;;
6017;SDS011;3037;51.068;13.780;2022-10-19T06:31:20;17.07;;;9.63;;
6017;SDS011;3037;51.068;13.780;2022-10-19T06:33:46;17.50;;;11.20;;
6017;SDS011;3037;51.068;13.780;2022-10-19T06:36:13;23.30;;;10.40;;
6017;SDS011;3037;51.068;13.780;2022-10-19T06:38:40;30.13;;;10.63;;
6017;SDS011;3037;51.068;13.780;2022-10-19T06:41:07;18.63;;;10.37;;
6017;SDS011;3037;51.068;13.780;2022-10-19T06:43:33;15.13;;;9.83;;
6017;SDS011;3037;51.068;13.780;2022-10-19T06:46:02;15.57;;;9.70;;
6017;SDS011;3037;51.068;13.780;2022-10-19T06:48:32;17.83;;;9.93;;
6017;SDS011;3037;51.068;13.780;2022-10-19T06:50:59;31.83;;;9.20;;
6017;SDS011;3037;51.068;13.780;2022-10-19T06:53:26;21.00;;;8.40;;
6017;SDS011;3037;51.068;13.780;2022-10-19T06:55:55;12.37;;;8.30;;
6017;SDS011;3037;51.068;13.780;2022-10-19T06:58:22;14.40;;;7.20;;
6017;SDS011;3037;51.068;13.780;2022-10-19T07:00:56;16.03;;;9.33;;
6017;SDS011;3037;51.068;13.780;2022-10-19T07:03:23;23.50;;;8.47;;
6017;SDS011;3037;51.068;13.780;2022-10-19T07:08:19;11.07;;;8.20;;
6017;SDS011;3037;51.068;13.780;2022-10-19T07:10:48;22.73;;;9.97;;
6017;SDS011;3037;51.068;13.780;2022-10-19T07:13:18;13.00;;;7.97;;
6017;SDS011;3037;51.068;13.780;2022-10-19T07:15:44;13.50;;;7.83;;
6017;SDS011;3037;51.068;13.780;2022-10-19T07:18:10;14.83;;;7.77;;
6017;SDS011;3037;51.068;13.780;2022-10-19T07:20:35;19.50;;;8.90;;
6017;SDS011;3037;51.068;13.780;2022-10-19T07:23:01;13.67;;;8.17;;
6017;SDS011;3037;51.068;13.780;2022-10-19T07:25:27;23.03;;;9.47;;
6017;SDS011;3037;51.068;13.780;2022-10-19T07:27:54;15.00;;;7.50;;
6017;SDS011;3037;51.068;13.780;2022-10-19T07:30:19;23.77;;;7.83;;
6017;SDS011;3037;51.068;13.780;2022-10-19T07:32:45;11.93;;;7.33;;
6017;SDS011;3037;51.068;13.780;2022-10-19T07:35:10;14.13;;;6.80;;
6017;SDS011;3037;51.068;13.780;2022-10-19T07:37:36;17.07;;;6.60;;
6017;SDS011;3037;51.068;13.780;2022-10-19T07:40:02;31.83;;;6.47;;
6017;SDS011;3037;51.068;13.780;2022-10-19T07:42:27;10.07;;;6.23;;
6017;SDS011;3037;51.068;13.780;2022-10-19T07:44:54;9.80;;;5.40;;
6017;SDS011;3037;51.068;13.780;2022-10-19T07:47:20;5.97;;;4.73;;
6017;SDS011;3037;51.068;13.780;2022-10-19T07:49:45;19.87;;;6.43;;
6017;SDS011;3037;51.068;13.780;2022-10-19T07:52:11;15.13;;;4.77;;
6017;SDS011;3037;51.068;13.780;2022-10-19T07:54:37;12.33;;;4.90;;
6017;SDS011;3037;51.068;13.780;2022-10-19T07:57:02;14.40;;;5.43;;
6017;SDS011;3037;51.068;13.780;2022-10-19T07:59:28;7.67;;;4.00;;
6017;SDS011;3037;51.068;13.780;2022-10-19T08:01:54;11.23;;;4.63;;
6017;SDS011;3037;51.068;13.780;2022-10-19T08:04:21;11.23;;;3.40;;
6017;SDS011;3037;51.068;13.780;2022-10-19T08:06:47;9.10;;;4.80;;
6017;SDS011;3037;51.068;13.780;2022-10-19T08:09:13;17.20;;;5.40;;
6017;SDS011;3037;51.068;13.780;2022-10-19T08:11:39;6.53;;;3.53;;
6017;SDS011;3037;51.068;13.780;2022-10-19T08:14:05;7.80;;;4.07;;
6017;SDS011;3037;51.068;13.780;2022-10-19T08:16:32;9.90;;;4.03;;
6017;SDS011;3037;51.068;13.780;2022-10-19T08:19:05;9.03;;;4.60;;
6017;SDS011;3037;51.068;13.780;2022-10-19T08:21:32;15.13;;;8.37;;
6017;SDS011;3037;51.068;13.780;2022-10-19T08:23:58;15.40;;;3.60;;
6017;SDS011;3037;51.068;13.780;2022-10-19T08:26:26;16.20;;;4.67;;
6017;SDS011;3037;51.068;13.780;2022-10-19T08:28:57;12.43;;;7.00;;
6017;SDS011;3037;51.068;13.780;2022-10-19T08:31:24;13.23;;;5.80;;
6017;SDS011;3037;51.068;13.780;2022-10-19T08:33:50;8.10;;;4.30;;
6017;SDS011;3037;51.068;13.780;2022-10-19T08:36:15;7.40;;;3.80;;
6017;SDS011;3037;51.068;13.780;2022-10-19T08:38:43;10.80;;;4.37;;
6017;SDS011;3037;51.068;13.780;2022-10-19T08:41:23;9.83;;;3.93;;
6017;SDS011;3037;51.068;13.780;2022-10-19T08:47:02;19.57;;;3.80;;
6017;SDS011;3037;51.068;13.780;2022-10-19T08:49:34;13.23;;;3.60;;
6017;SDS011;3037;51.068;13.780;2022-10-19T08:52:01;18.80;;;4.10;;
6017;SDS011;3037;51.068;13.780;2022-10-19T08:54:43;8.70;;;3.50;;
6017;SDS011;3037;51.068;13.780;2022-10-19T08:59:54;7.70;;;3.60;;
6017;SDS011;3037;51.068;13.780;2022-10-19T09:02:57;18.67;;;3.60;;
6017;SDS011;3037;51.068;13.780;2022-10-19T09:05:52;14.70;;;2.80;;
6017;SDS011;3037;51.068;13.780;2022-10-19T09:08:32;14.43;;;4.23;;
6017;SDS011;3037;51.068;13.780;2022-10-19T09:11:01;12.57;;;3.63;;
6017;SDS011;3037;51.068;13.780;2022-10-19T09:15:59;10.43;;;2.77;;
6017;SDS011;3037;51.068;13.780;2022-10-19T09:18:27;9.73;;;4.20;;
6017;SDS011;3037;51.068;13.780;2022-10-19T09:20:59;8.87;;;3.00;;
6017;SDS011;3037;51.068;13.780;2022-10-19T09:23:39;12.20;;;3.43;;
6017;SDS011;3037;51.068;13.780;2022-10-19T09:26:21;3.90;;;2.03;;
6017;SDS011;3037;51.068;13.780;2022-10-19T09:31:30;6.90;;;2.70;;
6017;SDS011;3037;51.068;13.780;2022-10-19T09:33:59;4.00;;;2.00;;
6017;SDS011;3037;51.068;13.780;2022-10-19T09:36:37;12.97;;;3.40;;
6017;SDS011;3037;51.068;13.780;2022-10-19T09:39:05;4.80;;;2.70;;
6017;SDS011;3037;51.068;13.780;2022-10-19T09:41:33;7.07;;;2.30;;
6017;SDS011;3037;51.068;13.780;2022-10-19T09:43:59;3.83;;;1.90;;
6017;SDS011;3037;51.068;13.780;2022-10-19T09:46:26;6.30;;;2.07;;
6017;SDS011;3037;51.068;13.780;2022-10-19T09:48:59;5.33;;;1.53;;
6017;SDS011;3037;51.068;13.780;2022-10-19T09:51:37;4.70;;;1.57;;
6017;SDS011;3037;51.068;13.780;2022-10-19T09:54:21;9.03;;;1.60;;
6017;SDS011;3037;51.068;13.780;2022-10-19T09:56:51;8.30;;;1.67;;
6017;SDS011;3037;51.068;13.780;2022-10-19T09:59:22;6.17;;;1.90;;
6017;SDS011;3037;51.068;13.780;2022-10-19T10:02:12;2.00;;;1.30;;
6017;SDS011;3037;51.068;13.780;2022-10-19T10:04:54;4.83;;;1.90;;
6017;SDS011;3037;51.068;13.780;2022-10-19T10:07:37;7.63;;;3.00;;
6017;SDS011;3037;51.068;13.780;2022-10-19T10:10:18;4.73;;;2.30;;
6017;SDS011;3037;51.068;13.780;2022-10-19T10:12:46;2.97;;;2.17;;
6017;SDS011;3037;51.068;13.780;2022-10-19T10:15:17;2.50;;;1.63;;
6017;SDS011;3037;51.068;13.780;2022-10-19T10:17:46;3.53;;;1.70;;
6017;SDS011;3037;51.068;13.780;2022-10-19T10:20:17;6.43;;;2.20;;
6017;SDS011;3037;51.068;13.780;2022-10-19T10:22:53;5.40;;;1.70;;
6017;SDS011;3037;51.068;13.780;2022-10-19T10:25:22;8.20;;;2.47;;
6017;SDS011;3037;51.068;13.780;2022-10-19T10:27:56;7.23;;;1.57;;
6017;SDS011;3037;51.068;13.780;2022-10-19T10:30:24;6.43;;;1.70;;
6017;SDS011;3037;51.068;13.780;2022-10-19T10:32:54;4.20;;;1.83;;
6017;SDS011;3037;51.068;13.780;2022-10-19T10:35:31;5.30;;;2.10;;
6017;SDS011;3037;51.068;13.780;2022-10-19T10:38:34;8.63;;;1.70;;
6017;SDS011;3037;51.068;13.780;2022-10-19T10:41:01;5.43;;;2.03;;
6017;SDS011;3037;51.068;13.780;2022-10-19T10:43:34;3.70;;;2.10;;
6017;SDS011;3037;51.068;13.780;2022-10-19T10:46:06;2.30;;;2.10;;
6017;SDS011;3037;51.068;13.780;2022-10-19T10:48:38;4.13;;;1.50;;
6017;SDS011;3037;51.068;13.780;2022-10-19T10:51:18;4.80;;;1.47;;
6017;SDS011;3037;51.068;13.780;2022-10-19T10:53:44;2.40;;;1.10;;
6017;SDS011;3037;51.068;13.780;2022-10-19T10:56:24;3.47;;;1.30;;
6017;SDS011;3037;51.068;13.780;2022-10-19T10:58:58;4.83;;;1.30;;
6017;SDS011;3037;51.068;13.780;2022-10-19T11:01:44;1.43;;;0.90;;
6017;SDS011;3037;51.068;13.780;2022-10-19T11:04:44;3.23;;;1.30;;
6017;SDS011;3037;51.068;13.780;2022-10-19T11:07:16;5.70;;;2.57;;
6017;SDS011;3037;51.068;13.780;2022-10-19T11:09:47;5.03;;;1.93;;
6017;SDS011;3037;51.068;13.780;2022-10-19T11:12:18;5.10;;;2.10;;
6017;SDS011;3037;51.068;13.780;2022-10-19T11:15:05;2.70;;;1.40;;
6017;SDS011;3037;51.068;13.780;2022-10-19T11:17:40;5.57;;;2.53;;
6017;SDS011;3037;51.068;13.780;2022-10-19T11:20:16;4.70;;;1.70;;
6017;SDS011;3037;51.068;13.780;2022-10-19T11:22:44;5.90;;;2.40;;
6017;SDS011;3037;51.068;13.780;2022-10-19T11:28:12;5.43;;;1.87;;
6017;SDS011;3037;51.068;13.780;2022-10-19T11:33:43;13.47;;;4.10;;
6017;SDS011;3037;51.068;13.780;2022-10-19T11:36:30;63.63;;;10.80;;
6017;SDS011;3037;51.068;13.780;2022-10-19T11:39:09;35.57;;;8.53;;
6017;SDS011;3037;51.068;13.780;2022-10-19T11:41:51;10.13;;;4.10;;
6017;SDS011;3037;51.068;13.780;2022-10-19T11:44:25;13.37;;;4.50;;
6017;SDS011;3037;51.068;13.780;2022-10-19T11:53:05;9.77;;;1.77;;
6017;SDS011;3037;51.068;13.780;2022-10-19T11:55:44;7.23;;;2.60;;
6017;SDS011;3037;51.068;13.780;2022-10-19T12:00:55;23.07;;;8.27;;
6017;SDS011;3037;51.068;13.780;2022-10-19T12:17:40;3.17;;;2.40;;
6017;SDS011;3037;51.068;13.780;2022-10-19T12:20:27;1.63;;;1.23;;
6017;SDS011;3037;51.068;13.780;2022-10-19T12:25:57;3.10;;;1.33;;
6017;SDS011;3037;51.068;13.780;2022-10-19T12:28:36;3.40;;;1.13;;
6017;SDS011;3037;51.068;13.780;2022-10-19T12:31:05;3.80;;;1.67;;
6017;SDS011;3037;51.068;13.780;2022-10-19T12:36:31;5.73;;;1.20;;
6017;SDS011;3037;51.068;13.780;2022-10-19T12:44:21;8.73;;;1.10;;
6017;SDS011;3037;51.068;13.780;2022-10-19T12:47:14;1.13;;;0.80;;
6017;SDS011;3037;51.068;13.780;2022-10-19T12:49:49;0.87;;;0.87;;
6017;SDS011;3037;51.068;13.780;2022-10-19T12:53:01;2.60;;;0.87;;
6017;SDS011;3037;51.068;13.780;2022-10-19T12:57:39;2.40;;;0.77;;
6017;SDS011;3037;51.068;13.780;2022-10-19T13:00:28;1.47;;;0.80;;
6017;SDS011;3037;51.068;13.780;2022-10-19T13:05:28;1.60;;;0.80;;
6017;SDS011;3037;51.068;13.780;2022-10-19T13:07:55;3.33;;;1.00;;
6017;SDS011;3037;51.068;13.780;2022-10-19T13:10:22;2.93;;;0.93;;
6017;SDS011;3037;51.068;13.780;2022-10-19T13:12:51;1.60;;;0.87;;
6017;SDS011;3037;51.068;13.780;2022-10-19T13:17:58;0.90;;;0.90;;
6017;SDS011;3037;51.068;13.780;2022-10-19T13:22:50;1.70;;;0.90;;
6017;SDS011;3037;51.068;13.780;2022-10-19T13:25:30;2.50;;;1.20;;
6017;SDS011;3037;51.068;13.780;2022-10-19T13:36:09;1.53;;;0.90;;
6017;SDS011;3037;51.068;13.780;2022-10-19T13:38:45;2.40;;;1.10;;
6017;SDS011;3037;51.068;13.780;2022-10-19T13:41:35;2.20;;;0.93;;
6017;SDS011;3037;51.068;13.780;2022-10-19T13:44:23;5.77;;;1.30;;
6017;SDS011;3037;51.068;13.780;2022-10-19T13:49:53;4.20;;;1.13;;
6017;SDS011;3037;51.068;13.780;2022-10-19T13:58:08;3.63;;;1.80;;
6017;SDS011;3037;51.068;13.780;2022-10-19T14:06:23;5.23;;;1.13;;
6017;SDS011;3037;51.068;13.780;2022-10-19T14:11:54;2.70;;;1.37;;
6017;SDS011;3037;51.068;13.780;2022-10-19T14:14:30;1.27;;;1.07;;
6017;SDS011;3037;51.068;13.780;2022-10-19T14:17:12;5.90;;;1.13;;
6017;SDS011;3037;51.068;13.780;2022-10-19T14:19:46;1.33;;;1.03;;
6017;SDS011;3037;51.068;13.780;2022-10-19T14:25:17;2.90;;;0.90;;
6017;SDS011;3037;51.068;13.780;2022-10-19T14:27:51;1.77;;;1.10;;
6017;SDS011;3037;51.068;13.780;2022-10-19T14:32:52;2.70;;;2.20;;
6017;SDS011;3037;51.068;13.780;2022-10-19T14:37:58;2.17;;;1.10;;
6017;SDS011;3037;51.068;13.780;2022-10-19T14:40:26;1.60;;;1.47;;
6017;SDS011;3037;51.068;13.780;2022-10-19T14:42:54;1.53;;;1.43;;
6017;SDS011;3037;51.068;13.780;2022-10-19T14:45:28;2.13;;;1.40;;
6017;SDS011;3037;51.068;13.780;2022-10-19T14:50:30;1.93;;;1.17;;
6017;SDS011;3037;51.068;13.780;2022-10-19T14:56:05;2.00;;;1.90;;
6017;SDS011;3037;51.068;13.780;2022-10-19T14:58:43;1.10;;;1.10;;
6017;SDS011;3037;51.068;13.780;2022-10-19T15:01:21;1.07;;;1.07;;
6017;SDS011;3037;51.068;13.780;2022-10-19T15:03:47;7.33;;;1.10;;
6017;SDS011;3037;51.068;13.780;2022-10-19T15:06:24;1.33;;;1.20;;
6017;SDS011;3037;51.068;13.780;2022-10-19T15:09:02;4.13;;;0.93;;
6017;SDS011;3037;51.068;13.780;2022-10-19T15:11:32;2.63;;;1.00;;
6017;SDS011;3037;51.068;13.780;2022-10-19T15:14:04;6.63;;;1.07;;
6017;SDS011;3037;51.068;13.780;2022-10-19T15:16:39;4.00;;;1.30;;
6017;SDS011;3037;51.068;13.780;2022-10-19T15:19:18;2.57;;;1.30;;
6017;SDS011;3037;51.068;13.780;2022-10-19T15:22:05;2.00;;;1.50;;
6017;SDS011;3037;51.068;13.780;2022-10-19T15:24:55;2.40;;;1.40;;
6017;SDS011;3037;51.068;13.780;2022-10-19T15:30:05;1.47;;;1.20;;
6017;SDS011;3037;51.068;13.780;2022-10-19T15:32:43;3.80;;;1.30;;
6017;SDS011;3037;51.068;13.780;2022-10-19T15:35:32;7.10;;;1.20;;
6017;SDS011;3037;51.068;13.780;2022-10-19T15:37:59;1.90;;;1.00;;
6017;SDS011;3037;51.068;13.780;2022-10-19T15:40:41;3.43;;;1.37;;
6017;SDS011;3037;51.068;13.780;2022-10-19T15:51:50;4.80;;;1.80;;
6017;SDS011;3037;51.068;13.780;2022-10-19T15:53:58;8.13;;;1.27;;
6017;SDS011;3037;51.068;13.780;2022-10-19T15:56:26;1.93;;;1.27;;
6017;SDS011;3037;51.068;13.780;2022-10-19T15:58:54;1.30;;;1.20;;
6017;SDS011;3037;51.068;13.780;2022-10-19T16:01:25;1.40;;;1.30;;
6017;SDS011;3037;51.068;13.780;2022-10-19T16:03:52;3.90;;;1.33;;
6017;SDS011;3037;51.068;13.780;2022-10-19T16:06:19;2.00;;;1.10;;
6017;SDS011;3037;51.068;13.780;2022-10-19T16:08:47;1.40;;;1.30;;
6017;SDS011;3037;51.068;13.780;2022-10-19T16:11:15;2.40;;;1.60;;
6017;SDS011;3037;51.068;13.780;2022-10-19T16:13:42;3.07;;;1.53;;
6017;SDS011;3037;51.068;13.780;2022-10-19T16:16:09;3.33;;;1.33;;
6017;SDS011;3037;51.068;13.780;2022-10-19T16:18:38;1.40;;;1.30;;
6017;SDS011;3037;51.068;13.780;2022-10-19T16:21:04;3.00;;;1.30;;
6017;SDS011;3037;51.068;13.780;2022-10-19T16:23:31;1.20;;;1.20;;
6017;SDS011;3037;51.068;13.780;2022-10-19T16:25:59;3.10;;;1.20;;
6017;SDS011;3037;51.068;13.780;2022-10-19T16:28:24;2.87;;;1.70;;
6017;SDS011;3037;51.068;13.780;2022-10-19T16:30:53;4.50;;;2.70;;
6017;SDS011;3037;51.068;13.780;2022-10-19T16:33:19;1.43;;;0.83;;
6017;SDS011;3037;51.068;13.780;2022-10-19T16:35:45;3.27;;;1.43;;
6017;SDS011;3037;51.068;13.780;2022-10-19T16:38:11;1.70;;;1.60;;
6017;SDS011;3037;51.068;13.780;2022-10-19T16:40:36;1.57;;;1.33;;
6017;SDS011;3037;51.068;13.780;2022-10-19T16:43:02;1.10;;;1.00;;
6017;SDS011;3037;51.068;13.780;2022-10-19T16:45:28;4.03;;;1.83;;
6017;SDS011;3037;51.068;13.780;2022-10-19T16:47:54;3.17;;;1.57;;
6017;SDS011;3037;51.068;13.780;2022-10-19T16:50:20;8.00;;;1.77;;
6017;SDS011;3037;51.068;13.780;2022-10-19T16:52:46;7.10;;;1.73;;
6017;SDS011;3037;51.068;13.780;2022-10-19T16:55:12;1.50;;;1.40;;
6017;SDS011;3037;51.068;13.780;2022-10-19T16:57:37;2.20;;;1.70;;
6017;SDS011;3037;51.068;13.780;2022-10-19T17:00:04;4.70;;;2.30;;
6017;SDS011;3037;51.068;13.780;2022-10-19T17:02:30;5.10;;;3.27;;
6017;SDS011;3037;51.068;13.780;2022-10-19T17:04:56;2.07;;;1.97;;
6017;SDS011;3037;51.068;13.780;2022-10-19T17:07:22;3.07;;;1.80;;
6017;SDS011;3037;51.068;13.780;2022-10-19T17:09:48;4.47;;;3.33;;
6017;SDS011;3037;51.068;13.780;2022-10-19T17:12:14;16.03;;;10.00;;
6017;SDS011;3037;51.068;13.780;2022-10-19T17:14:40;11.03;;;8.30;;
6017;SDS011;3037;51.068;13.780;2022-10-19T17:17:06;5.37;;;4.87;;
6017;SDS011;3037;51.068;13.780;2022-10-19T17:22:01;8.30;;;4.30;;
6017;SDS011;3037;51.068;13.780;2022-10-19T17:24:27;6.63;;;3.87;;
6017;SDS011;3037;51.068;13.780;2022-10-19T17:26:53;6.23;;;3.03;;
6017;SDS011;3037;51.068;13.780;2022-10-19T17:29:20;2.40;;;2.20;;
6017;SDS011;3037;51.068;13.780;2022-10-19T17:31:45;3.13;;;2.60;;